Time;durP1;ratioP1;P1;durP2;ratioP2;P2;SDS_P1;SDS_P2;PMS_P1;PMS_P2;Temp;Humidity;BMP_temperature;BMP_pressure;BME280_temperature;BME280_humidity;BME280_pressure;Samples;Min_cycle;Max_cycle;Signal;HPM_P1;HPM_P2
2022/08/23 00:01:14;;;;;;;29.80;16.27;;;;;;;26.47;34.60;100228.72;5085653;28;20059;-65
2022/08/23 00:03:41;;;;;;;33.55;17.08;;;;;;;26.40;34.54;100233.53;5070237;28;20414;-65
2022/08/23 00:06:08;;;;;;;28.50;16.45;;;;;;;26.48;34.55;100232.28;5068714;28;20059;-65
2022/08/23 00:08:34;;;;;;;27.35;15.73;;;;;;;26.35;34.53;100226.06;5086074;28;20090;-65
2022/08/23 00:10:59;;;;;;;26.27;16.95;;;;;;;26.40;34.69;100231.59;5069066;28;20135;-64
2022/08/23 00:13:25;;;;;;;29.90;16.15;;;;;;;26.39;34.77;100219.06;5069478;28;20370;-64
2022/08/23 00:15:51;;;;;;;25.17;15.40;;;;;;;26.01;35.07;100188.16;5067226;28;20053;-65
2022/08/23 00:18:17;;;;;;;25.13;14.48;;;;;;;26.26;34.99;100233.00;5083743;28;20063;-64
2022/08/23 00:20:43;;;;;;;29.13;16.08;;;;;;;26.37;34.70;100232.09;5069749;28;20041;-64
2022/08/23 00:23:09;;;;;;;31.52;15.65;;;;;;;26.43;34.85;100235.75;5068806;28;20033;-64
2022/08/23 00:25:35;;;;;;;30.83;15.75;;;;;;;26.33;34.53;100230.97;5068843;28;20049;-64
2022/08/23 00:28:01;;;;;;;27.27;16.83;;;;;;;26.32;34.88;100244.81;5067776;28;20047;-64
2022/08/23 00:30:27;;;;;;;33.50;15.85;;;;;;;26.33;35.01;100241.00;5069813;28;20443;-64
2022/08/23 00:32:53;;;;;;;25.98;15.93;;;;;;;26.24;35.26;100248.78;5068562;28;20045;-64
2022/08/23 00:35:19;;;;;;;32.70;15.38;;;;;;;26.23;35.04;100238.94;5035305;28;20147;-64
2022/08/23 00:37:45;;;;;;;28.00;15.95;;;;;;;26.33;35.12;100238.28;5068288;28;20453;-65
2022/08/23 00:40:13;;;;;;;22.85;15.40;;;;;;;26.25;35.01;100220.44;5069725;28;20040;-64
2022/08/23 00:48:33;;;;;;;25.60;15.43;;;;;;;26.37;35.00;100256.63;5071990;28;20052;-65
2022/08/23 00:51:10;;;;;;;28.20;14.98;;;;;;;26.34;34.91;100248.94;5071876;28;20135;-65
2022/08/23 00:53:42;;;;;;;26.48;15.25;;;;;;;26.48;34.92;100257.63;5071970;28;20070;-66
2022/08/23 00:56:11;;;;;;;33.30;15.77;;;;;;;26.38;34.91;100260.19;5088583;28;20083;-65
2022/08/23 00:58:37;;;;;;;29.42;14.35;;;;;;;26.35;34.85;100250.59;5071470;28;20214;-65
2022/08/23 01:01:04;;;;;;;29.95;15.88;;;;;;;26.31;35.17;100251.31;5071868;28;20052;-65
2022/08/23 01:03:31;;;;;;;32.53;15.88;;;;;;;26.20;35.54;100263.94;5072992;28;20592;-64
2022/08/23 01:06:06;;;;;;;28.15;15.45;;;;;;;26.19;35.44;100265.00;5071653;28;20136;-64
2022/08/23 01:08:32;;;;;;;26.73;15.70;;;;;;;26.17;35.25;100261.69;5088969;28;20047;-64
2022/08/23 01:11:45;;;;;;;30.67;15.13;;;;;;;26.30;35.24;100266.00;5088716;28;20071;-65
2022/08/23 01:14:27;;;;;;;31.67;16.17;;;;;;;26.15;35.35;100255.69;5071619;28;20059;-64
2022/08/23 01:17:07;;;;;;;26.52;15.45;;;;;;;26.08;35.54;100244.09;5088215;28;20044;-64
2022/08/23 01:19:54;;;;;;;28.75;15.82;;;;;;;26.11;35.49;100256.38;5054819;28;20473;-64
2022/08/23 01:22:33;;;;;;;31.17;15.82;;;;;;;26.10;35.62;100273.81;5054625;28;20052;-64
2022/08/23 01:24:59;;;;;;;34.13;16.35;;;;;;;25.99;35.78;100278.22;5071339;28;20516;-64
2022/08/23 01:27:26;;;;;;;27.38;16.52;;;;;;;25.90;36.10;100282.38;5054660;28;20045;-64
2022/08/23 01:29:54;;;;;;;22.75;15.27;;;;;;;25.77;36.08;100269.03;5072540;28;20059;-65
2022/08/23 01:32:20;;;;;;;30.65;16.02;;;;;;;25.79;36.55;100283.25;5071108;28;20048;-64
2022/08/23 01:34:46;;;;;;;31.30;16.15;;;;;;;25.71;36.58;100283.59;5054437;28;20417;-64
2022/08/23 01:37:12;;;;;;;27.83;15.27;;;;;;;25.75;36.55;100284.81;5072241;28;20037;-64
2022/08/23 01:39:38;;;;;;;26.38;15.73;;;;;;;25.70;36.66;100289.28;5070743;28;20127;-65
2022/08/23 01:42:06;;;;;;;28.23;15.73;;;;;;;25.67;36.65;100285.16;5054655;28;20048;-64
2022/08/23 01:44:33;;;;;;;25.73;15.63;;;;;;;25.75;36.67;100290.25;5054393;28;20051;-64
2022/08/23 01:47:00;;;;;;;27.45;15.35;;;;;;;25.67;36.82;100295.22;5053976;28;20068;-65
2022/08/23 01:49:34;;;;;;;26.20;15.25;;;;;;;25.61;36.82;100288.84;5070846;28;20033;-64
2022/08/23 01:52:00;;;;;;;28.23;15.82;;;;;;;25.44;37.10;100295.25;5070800;28;20052;-64
2022/08/23 01:54:25;;;;;;;26.70;15.90;;;;;;;25.57;36.99;100300.44;5070825;28;20098;-65
2022/08/23 01:56:51;;;;;;;26.42;14.80;;;;;;;25.47;37.30;100295.63;5053126;28;20114;-64
2022/08/23 01:59:17;;;;;;;27.25;15.60;;;;;;;25.49;37.23;100298.09;5070378;28;20051;-65
2022/08/23 02:01:46;;;;;;;33.42;15.55;;;;;;;25.45;37.19;100289.56;5070560;28;20113;-64
2022/08/23 02:04:12;;;;;;;32.67;15.88;;;;;;;25.45;37.40;100291.50;5070550;28;20501;-65
2022/08/23 02:06:38;;;;;;;32.08;15.57;;;;;;;25.38;37.43;100294.31;5070680;28;20502;-64
2022/08/23 02:09:05;;;;;;;26.90;15.32;;;;;;;25.41;37.63;100299.28;5070772;28;20044;-66
2022/08/23 02:11:37;;;;;;;25.63;15.75;;;;;;;25.52;37.50;100292.16;5070609;28;20036;-65
2022/08/23 02:14:06;;;;;;;25.88;15.60;;;;;;;25.37;37.81;100278.25;5053941;28;20048;-65
2022/08/23 02:16:48;;;;;;;26.90;14.82;;;;;;;25.44;37.83;100303.41;5070491;28;20040;-65
2022/08/23 02:19:15;;;;;;;29.40;15.77;;;;;;;25.40;38.03;100300.34;5070235;28;20044;-65
2022/08/23 02:21:41;;;;;;;25.67;14.05;;;;;;;25.33;38.07;100287.94;5053741;28;20518;-65
2022/08/23 02:24:21;;;;;;;25.92;16.25;;;;;;;25.06;38.26;100248.66;5070307;28;20041;-66
2022/08/23 02:26:50;;;;;;;28.25;14.77;;;;;;;25.32;38.24;100306.13;5087017;28;20445;-64
2022/08/23 02:29:17;;;;;;;32.28;15.38;;;;;;;25.32;38.33;100311.56;5070097;28;20037;-64
2022/08/23 02:31:45;;;;;;;26.92;16.02;;;;;;;25.11;38.49;100290.38;5053191;28;20048;-64
2022/08/23 02:34:11;;;;;;;26.52;15.27;;;;;;;25.21;38.50;100296.06;5086814;28;20409;-64
2022/08/23 02:36:38;;;;;;;28.88;15.50;;;;;;;25.25;38.51;100305.41;5087054;28;20123;-64
2022/08/23 02:39:05;;;;;;;24.58;14.68;;;;;;;25.38;38.29;100318.81;5053238;28;20485;-65
2022/08/23 02:41:31;;;;;;;28.98;15.95;;;;;;;25.12;38.53;100292.06;5086580;28;20125;-65
2022/08/23 02:43:59;;;;;;;26.50;15.13;;;;;;;25.18;38.58;100312.03;5086590;28;20561;-65
2022/08/23 02:46:25;;;;;;;27.08;15.20;;;;;;;25.20;38.75;100313.44;5086467;28;20148;-65
2022/08/23 02:48:52;;;;;;;24.83;13.95;;;;;;;25.24;38.58;100319.22;5069193;28;20044;-64
2022/08/23 02:51:19;;;;;;;22.92;14.77;;;;;;;25.41;38.63;100323.75;5035995;28;20064;-66
2022/08/23 02:53:45;;;;;;;24.42;15.02;;;;;;;25.27;38.63;100330.47;5070252;28;20105;-65
2022/08/23 02:56:12;;;;;;;29.17;14.77;;;;;;;25.40;38.75;100318.56;5052843;28;20048;-65
2022/08/23 02:58:38;;;;;;;28.08;14.32;;;;;;;25.25;38.66;100304.59;5069376;28;20044;-62
2022/08/23 03:01:05;;;;;;;23.85;14.75;;;;;;;25.43;38.49;100320.81;5068997;28;20048;-63
2022/08/23 03:03:31;;;;;;;24.48;14.55;;;;;;;25.40;38.59;100322.09;5085385;28;20402;-63
2022/08/23 03:05:57;;;;;;;28.63;14.63;;;;;;;25.28;38.79;100331.31;5068561;28;20139;-63
2022/08/23 03:08:23;;;;;;;24.63;14.68;;;;;;;25.36;38.75;100336.41;5067809;28;20239;-63
2022/08/23 03:10:51;;;;;;;38.05;14.25;;;;;;;25.41;38.83;100323.75;5083837;28;20102;-63
2022/08/23 03:13:19;;;;;;;30.10;14.20;;;;;;;25.36;38.94;100331.81;5067504;28;20048;-62
2022/08/23 03:15:47;;;;;;;35.38;14.85;;;;;;;25.30;38.75;100323.72;5069122;28;20437;-64
2022/08/23 03:18:13;;;;;;;25.27;14.57;;;;;;;25.37;38.74;100330.72;5069063;28;20052;-66
2022/08/23 03:20:40;;;;;;;19.40;13.80;;;;;;;25.33;38.71;100315.13;5069109;28;20068;-65
2022/08/23 03:23:09;;;;;;;26.90;14.48;;;;;;;25.36;38.90;100323.63;5068785;28;20044;-65
2022/08/23 03:25:37;;;;;;;30.08;13.18;;;;;;;25.43;38.65;100332.50;5068725;28;20044;-65
2022/08/23 03:28:19;;;;;;;26.80;13.93;;;;;;;25.53;38.57;100331.91;5068657;28;20044;-65
2022/08/23 03:30:45;;;;;;;32.53;14.68;;;;;;;25.53;38.76;100345.50;5052394;28;20080;-65
2022/08/23 03:33:12;;;;;;;25.75;13.27;;;;;;;25.50;38.64;100338.66;5086080;28;20044;-65
2022/08/23 03:35:38;;;;;;;24.90;14.27;;;;;;;25.52;38.65;100343.84;5035598;28;20044;-64
2022/08/23 03:38:04;;;;;;;22.55;13.15;;;;;;;25.49;38.37;100333.47;5068725;28;20918;-64
2022/08/23 03:40:29;;;;;;;26.20;12.82;;;;;;;25.51;38.67;100348.47;5051808;28;20044;-64
2022/08/23 03:42:55;;;;;;;22.55;13.15;;;;;;;25.63;38.73;100345.75;5068681;28;20033;-64
2022/08/23 03:45:23;;;;;;;30.23;13.65;;;;;;;25.70;38.29;100360.03;5068377;28;20060;-64
2022/08/23 03:47:50;;;;;;;18.80;12.90;;;;;;;25.58;38.35;100332.03;5085217;28;20041;-64
2022/08/23 03:50:16;;;;;;;22.85;12.98;;;;;;;25.64;38.69;100355.56;5068333;28;20055;-65
2022/08/23 03:52:42;;;;;;;25.65;13.63;;;;;;;25.71;38.51;100361.72;5068868;28;20150;-64
2022/08/23 03:55:09;;;;;;;25.15;13.43;;;;;;;25.82;38.34;100364.41;5068519;28;20040;-64
2022/08/23 03:57:37;;;;;;;28.83;13.73;;;;;;;25.68;38.52;100346.69;5085210;28;20502;-64
2022/08/23 04:00:06;;;;;;;26.80;12.43;;;;;;;26.05;38.13;100367.13;5051915;28;20055;-65
2022/08/23 04:02:40;;;;;;;37.17;13.60;;;;;;;25.86;38.27;100364.75;5084309;28;20044;-64
2022/08/23 04:05:09;;;;;;;21.13;13.00;;;;;;;25.87;38.67;100375.41;5068446;28;20048;-64
2022/08/23 04:07:57;;;;;;;21.25;12.68;;;;;;;25.90;37.93;100353.16;5054844;28;20422;-64
2022/08/23 04:10:24;;;;;;;21.27;13.93;;;;;;;25.90;38.54;100374.94;5084742;28;20047;-65
2022/08/23 04:12:53;;;;;;;24.63;12.57;;;;;;;26.09;38.08;100375.63;5066355;28;20040;-65
2022/08/23 04:15:19;;;;;;;23.70;13.32;;;;;;;26.16;37.94;100373.59;5066580;28;20060;-65
2022/08/23 04:17:46;;;;;;;21.48;12.20;;;;;;;26.20;38.10;100385.69;5066713;28;20053;-66
2022/08/23 04:20:15;;;;;;;19.48;12.55;;;;;;;26.29;37.66;100387.75;5067921;28;20127;-64
2022/08/23 04:22:53;;;;;;;27.95;13.25;;;;;;;26.38;37.86;100382.75;5087238;28;20044;-65
2022/08/23 04:25:20;;;;;;;28.33;12.40;;;;;;;26.24;37.94;100384.09;5071412;28;20056;-64
2022/08/23 04:27:47;;;;;;;21.80;12.02;;;;;;;26.25;38.01;100396.66;5072289;28;20135;-66
2022/08/23 04:30:13;;;;;;;21.35;11.70;;;;;;;26.40;37.97;100391.53;5055452;28;20036;-65
2022/08/23 04:32:39;;;;;;;25.35;13.35;;;;;;;26.40;38.01;100392.34;5089237;28;20575;-65
2022/08/23 04:35:06;;;;;;;31.35;13.43;;;;;;;26.42;37.89;100387.47;5089361;28;20044;-64
2022/08/23 04:37:34;;;;;;;20.58;11.93;;;;;;;26.54;37.31;100383.88;5072064;28;20044;-65
2022/08/23 04:42:44;;;;;;;19.75;12.52;;;;;;;26.69;37.49;100395.09;5072598;28;20504;-65
2022/08/23 04:45:10;;;;;;;30.15;13.13;;;;;;;26.58;37.87;100393.22;5072281;28;20044;-65
2022/08/23 04:47:40;;;;;;;25.35;12.52;;;;;;;26.75;37.32;100389.50;5071778;28;20094;-65
2022/08/23 04:50:08;;;;;;;22.83;11.77;;;;;;;26.95;37.05;100397.22;5071967;28;20040;-64
2022/08/23 04:52:34;;;;;;;24.20;12.60;;;;;;;27.11;36.71;100388.25;5071824;28;20043;-64
2022/08/23 04:55:00;;;;;;;25.58;12.32;;;;;;;27.24;36.54;100401.53;5072093;28;20041;-64
2022/08/23 04:57:47;;;;;;;26.50;12.27;;;;;;;27.46;35.99;100399.75;5076054;28;20506;-64
2022/08/23 05:00:18;;;;;;;22.17;12.20;;;;;;;27.67;35.47;100398.97;5055345;28;20417;-64
2022/08/23 05:02:52;;;;;;;23.05;12.43;;;;;;;27.74;35.38;100399.59;5071808;28;20090;-64
2022/08/23 05:05:19;;;;;;;23.73;12.60;;;;;;;27.84;35.53;100399.78;5073237;28;20086;-64
2022/08/23 05:07:45;;;;;;;19.95;13.05;;;;;;;27.99;35.11;100403.56;5055464;28;20492;-65
2022/08/23 05:10:13;;;;;;;29.88;11.75;;;;;;;28.30;34.79;100410.25;5072035;28;20094;-65
2022/08/23 05:12:42;;;;;;;22.90;11.48;;;;;;;28.32;34.53;100413.56;5072025;28;20048;-64
2022/08/23 05:15:10;;;;;;;25.63;12.02;;;;;;;28.46;34.30;100395.66;5073116;28;20041;-65
2022/08/23 05:17:40;;;;;;;29.70;13.40;;;;;;;28.58;34.19;100407.34;5071650;28;20052;-65
2022/08/23 05:20:07;;;;;;;23.58;11.93;;;;;;;28.82;34.39;100416.88;5071654;28;20052;-65
2022/08/23 05:22:34;;;;;;;20.73;11.95;;;;;;;28.94;33.41;100398.41;5054570;28;20056;-65
2022/08/23 05:25:21;;;;;;;22.85;11.68;;;;;;;28.97;33.44;100419.75;5070784;28;20393;-66
2022/08/23 05:27:48;;;;;;;23.23;11.88;;;;;;;28.93;33.82;100410.44;5071595;28;20056;-65
2022/08/23 05:30:14;;;;;;;27.35;11.63;;;;;;;29.17;33.46;100419.16;5088010;28;20102;-66
2022/08/23 05:32:40;;;;;;;28.02;12.05;;;;;;;29.37;33.21;100420.16;5071376;28;20079;-65
2022/08/23 05:35:09;;;;;;;24.58;11.63;;;;;;;29.32;32.76;100400.13;5054507;28;20068;-65
2022/08/23 05:37:38;;;;;;;27.53;11.43;;;;;;;29.51;32.95;100409.56;5071363;28;20522;-65
2022/08/23 05:40:04;;;;;;;28.67;11.15;;;;;;;29.70;32.55;100415.50;5071141;28;20040;-65
2022/08/23 05:42:37;;;;;;;34.10;11.98;;;;;;;29.74;32.61;100416.63;5071071;28;20406;-65
2022/08/23 05:45:03;;;;;;;25.45;11.25;;;;;;;29.88;32.26;100412.31;5070620;28;20055;-65
2022/08/23 05:47:29;;;;;;;24.23;10.50;;;;;;;29.83;32.41;100418.56;5070856;28;20490;-66
2022/08/23 05:50:15;;;;;;;18.67;10.77;;;;;;;29.67;32.62;100418.75;5070820;28;20044;-67
2022/08/23 05:52:43;;;;;;;31.90;10.65;;;;;;;29.75;32.74;100421.00;5070596;28;20049;-65
2022/08/23 05:55:09;;;;;;;25.40;11.02;;;;;;;29.76;32.56;100418.00;5070766;28;20047;-65
2022/08/23 05:57:57;;;;;;;19.77;10.55;;;;;;;29.87;32.69;100419.72;5070703;28;20052;-66
2022/08/23 06:00:24;;;;;;;24.23;10.50;;;;;;;30.11;32.23;100420.09;5070545;28;20520;-65
2022/08/23 06:03:05;;;;;;;23.58;10.57;;;;;;;30.32;32.08;100419.97;5070620;28;20084;-65
2022/08/23 06:05:33;;;;;;;20.23;10.40;;;;;;;30.42;31.73;100427.41;5087709;28;20597;-64
2022/08/23 06:07:59;;;;;;;27.35;11.57;;;;;;;30.40;31.79;100403.00;5086945;28;20059;-64
2022/08/23 06:10:25;;;;;;;24.17;10.00;;;;;;;30.71;31.23;100431.34;5070689;28;20044;-65
2022/08/23 06:12:58;;;;;;;28.23;10.65;;;;;;;30.83;31.22;100441.00;5087385;28;20433;-65
2022/08/23 06:15:23;;;;;;;24.30;10.60;;;;;;;30.88;31.21;100421.81;5070781;28;20051;-65
2022/08/23 06:17:50;;;;;;;19.23;9.60;;;;;;;31.11;30.58;100436.94;5072057;28;20047;-64
2022/08/23 06:20:18;;;;;;;17.45;10.00;;;;;;;31.37;30.29;100446.84;5070180;28;20044;-64
2022/08/23 06:22:56;;;;;;;19.33;9.75;;;;;;;30.96;31.06;100442.41;5070286;28;20041;-65
2022/08/23 06:25:22;;;;;;;22.70;9.70;;;;;;;30.92;30.87;100455.03;5072117;28;20081;-64
2022/08/23 06:27:57;;;;;;;26.70;9.20;;;;;;;31.11;30.68;100448.75;5054764;28;20048;-65
2022/08/23 06:30:22;;;;;;;18.90;8.65;;;;;;;31.09;30.48;100453.66;5087053;28;20117;-64
2022/08/23 06:33:00;;;;;;;19.83;9.20;;;;;;;31.27;30.17;100455.06;5071064;28;20050;-64
2022/08/23 06:35:44;;;;;;;21.17;9.65;;;;;;;31.41;30.15;100447.16;5068128;28;20040;-64
2022/08/23 06:38:15;;;;;;;20.92;8.82;;;;;;;31.32;30.08;100441.38;5084491;28;20043;-64
2022/08/23 06:40:50;;;;;;;26.50;9.85;;;;;;;31.42;29.98;100457.84;5067951;28;20709;-64
2022/08/23 06:43:25;;;;;;;19.58;9.00;;;;;;;31.74;29.64;100452.88;5068521;28;20048;-65
2022/08/23 06:46:23;;;;;;;23.98;9.80;;;;;;;31.99;29.45;100455.63;5068140;28;20051;-64
2022/08/23 06:48:50;;;;;;;25.17;8.63;;;;;;;31.70;29.62;100460.03;5085255;28;20049;-64
2022/08/23 06:51:27;;;;;;;23.50;8.65;;;;;;;32.09;28.98;100466.59;5071042;28;20314;-64
2022/08/23 06:54:11;;;;;;;24.67;9.27;;;;;;;32.06;29.46;100445.16;5069660;28;20041;-64
2022/08/23 06:57:03;;;;;;;20.27;8.93;;;;;;;32.56;28.44;100466.19;5077582;28;20045;-64
2022/08/23 06:59:41;;;;;;;19.60;8.25;;;;;;;32.85;27.97;100456.13;5069535;28;20048;-65
2022/08/23 07:02:31;;;;;;;;;;;;;;;33.30;26.89;100466.88;5087206;28;20129;-64
2022/08/23 07:04:57;;;;;;;17.98;7.70;;;;;;;33.16;27.24;100451.25;5070973;28;20492;-65
2022/08/23 07:07:29;;;;;;;20.65;8.90;;;;;;;33.52;26.68;100469.22;5070796;28;20135;-64
2022/08/23 07:09:56;;;;;;;19.25;7.65;;;;;;;33.68;26.55;100441.22;5069481;28;20573;-65
2022/08/23 07:12:22;;;;;;;15.38;7.00;;;;;;;33.84;25.90;100466.69;5069818;28;20127;-64
2022/08/23 07:14:48;;;;;;;17.73;7.50;;;;;;;33.73;26.30;100462.38;5069346;28;20457;-64
2022/08/23 07:17:14;;;;;;;19.02;6.93;;;;;;;33.62;26.46;100453.41;5069333;28;20044;-64
2022/08/23 07:19:42;;;;;;;16.80;6.85;;;;;;;34.01;25.94;100470.66;5069476;28;20040;-64
2022/08/23 07:22:09;;;;;;;16.73;6.90;;;;;;;34.54;25.08;100474.22;5070644;28;20052;-64
2022/08/23 07:24:36;;;;;;;17.83;7.20;;;;;;;34.60;24.85;100470.28;5069145;28;20049;-64
2022/08/23 07:27:05;;;;;;;16.77;6.80;;;;;;;34.75;24.94;100472.81;5086110;28;20119;-65
2022/08/23 07:29:32;;;;;;;12.93;7.05;;;;;;;35.11;24.42;100465.72;5086077;28;20533;-64
2022/08/23 07:31:58;;;;;;;13.68;6.78;;;;;;;35.85;23.45;100456.50;5052538;28;20498;-65
2022/08/23 07:34:25;;;;;;;16.80;6.55;;;;;;;36.99;22.60;100476.59;5085968;28;20040;-64
2022/08/23 07:36:52;;;;;;;16.58;6.88;;;;;;;37.08;21.29;100481.09;5052574;28;20044;-64
2022/08/23 07:39:19;;;;;;;18.77;6.10;;;;;;;37.43;20.75;100490.53;5069103;28;20047;-64
2022/08/23 07:41:45;;;;;;;10.88;5.80;;;;;;;38.29;19.68;100472.50;5052405;28;20044;-65
2022/08/23 07:44:12;;;;;;;15.43;6.30;;;;;;;39.81;18.78;100470.22;5069266;28;20578;-65
2022/08/23 07:46:41;;;;;;;15.40;5.35;;;;;;;41.57;16.64;100467.88;5069174;28;20410;-65
2022/08/23 07:49:10;;;;;;;14.95;5.53;;;;;;;42.38;15.59;100478.31;5052209;28;20048;-65
2022/08/23 07:51:46;;;;;;;14.98;5.82;;;;;;;42.14;16.01;100467.09;5068992;28;20053;-65
2022/08/23 07:54:12;;;;;;;;;;;;;;;43.86;14.63;100478.03;5069535;28;20044;-65
2022/08/23 07:56:51;;;;;;;15.07;5.30;;;;;;;44.67;13.64;100470.59;5056060;28;19928;-65
2022/08/23 07:59:39;;;;;;;17.02;5.63;;;;;;;44.07;14.06;100473.84;5076429;28;20079;-64
2022/08/23 08:02:23;;;;;;;19.17;5.38;;;;;;;44.63;13.49;100471.66;5073033;28;20056;-65
2022/08/23 08:04:49;;;;;;;23.77;5.30;;;;;;;45.21;13.37;100470.59;5073170;28;20041;-65
2022/08/23 08:07:17;;;;;;;15.75;5.97;;;;;;;47.53;11.62;100466.09;5072785;28;20051;-65
2022/08/23 08:09:44;;;;;;;10.82;5.07;;;;;;;49.86;9.72;100467.28;5089839;28;20041;-65
2022/08/23 08:12:10;;;;;;;16.45;5.07;;;;;;;50.70;9.04;100474.19;5056323;28;20445;-65
2022/08/23 08:14:40;;;;;;;8.43;4.82;;;;;;;49.46;9.82;100456.28;5089614;28;20040;-65
2022/08/23 08:17:07;;;;;;;16.03;5.23;;;;;;;48.40;10.70;100448.41;5089728;28;20090;-65
2022/08/23 08:19:51;;;;;;;18.05;5.32;;;;;;;47.67;11.10;100444.53;5073834;28;20827;-64
2022/08/23 08:22:35;;;;;;;15.77;4.75;;;;;;;46.56;11.83;100447.47;5073761;28;20040;-65
2022/08/23 08:25:21;;;;;;;18.17;5.47;;;;;;;46.91;11.94;100450.81;5073565;28;20175;-66
2022/08/23 08:27:48;;;;;;;16.10;5.25;;;;;;;47.74;11.26;100438.16;5056200;28;20110;-65
2022/08/23 08:30:14;;;;;;;12.15;5.32;;;;;;;48.66;10.45;100446.22;5089371;28;20044;-65
2022/08/23 08:32:42;;;;;;;12.82;5.00;;;;;;;48.32;10.85;100439.09;5089185;28;20486;-66
2022/08/23 08:35:09;;;;;;;13.20;4.45;;;;;;;50.46;9.55;100441.88;5072223;28;20040;-65
2022/08/23 08:37:37;;;;;;;11.73;5.18;;;;;;;52.01;8.19;100449.72;5055849;28;20044;-66
2022/08/23 08:40:05;;;;;;;12.57;4.50;;;;;;;53.34;7.52;100440.59;5056028;28;20075;-65
2022/08/23 08:42:51;;;;;;;10.40;4.50;;;;;;;52.97;7.18;100448.34;5071951;28;20044;-66
2022/08/23 08:45:26;;;;;;;13.90;4.50;;;;;;;52.71;7.70;100441.34;5088861;28;20054;-66
2022/08/23 08:47:55;;;;;;;14.40;4.32;;;;;;;54.81;6.38;100451.50;5071925;28;20139;-66
2022/08/23 08:50:31;;;;;;;12.37;4.70;;;;;;;56.02;5.59;100445.50;5071934;28;20105;-65
2022/08/23 08:53:07;;;;;;;11.70;4.00;;;;;;;55.15;5.93;100436.22;5055584;28;20550;-66
2022/08/23 08:56:21;;;;;;;8.73;4.18;;;;;;;56.34;4.73;100470.38;5082830;28;20110;-65
2022/08/23 08:58:57;;;;;;;12.82;3.97;;;;;;;54.62;6.39;100434.41;5040130;28;20055;-65
2022/08/23 09:01:25;;;;;;;10.48;4.00;;;;;;;54.84;5.82;100447.81;5071870;28;20044;-65
2022/08/23 09:03:51;;;;;;;10.45;4.00;;;;;;;54.87;5.91;100431.91;5055370;28;20409;-65
2022/08/23 09:06:29;;;;;;;9.55;3.70;;;;;;;56.36;5.24;100444.28;5088148;28;20054;-65
2022/08/23 09:09:12;;;;;;;12.57;4.07;;;;;;;55.53;5.56;100429.63;5088650;28;20047;-65
2022/08/23 09:11:55;;;;;;;12.18;4.20;;;;;;;56.44;5.29;100432.22;5054920;28;20052;-66
2022/08/23 09:14:42;;;;;;;10.55;3.75;;;;;;;57.18;4.56;100428.00;5054976;28;20044;-66
2022/08/23 09:17:19;;;;;;;11.10;4.10;;;;;;;54.56;5.78;100417.03;5071451;28;20071;-64
2022/08/23 09:19:48;;;;;;;5.78;3.78;;;;;;;53.04;6.67;100408.53;5072771;28;20048;-65
2022/08/23 09:22:19;;;;;;;9.90;4.35;;;;;;;50.49;7.85;100418.41;5054960;28;20048;-65
2022/08/23 09:24:45;;;;;;;16.95;4.82;;;;;;;47.26;9.97;100411.88;5088027;28;20052;-65
2022/08/23 09:27:25;;;;;;;13.25;4.43;;;;;;;45.97;11.25;100399.50;5088214;28;20677;-65
2022/08/23 09:29:57;;;;;;;15.55;5.22;;;;;;;46.17;11.37;100406.69;5071545;28;20048;-65
2022/08/23 09:32:28;;;;;;;13.27;4.72;;;;;;;46.74;10.62;100406.34;5088504;28;20055;-65
2022/08/23 09:35:10;;;;;;;13.57;4.13;;;;;;;48.10;9.67;100406.31;5071205;28;20044;-65
2022/08/23 09:37:52;;;;;;;8.80;4.07;;;;;;;47.58;9.95;100407.41;5055135;28;20537;-65
2022/08/23 09:40:26;;;;;;;8.43;3.70;;;;;;;46.80;10.01;100404.00;5054217;28;20414;-65
2022/08/23 09:43:07;;;;;;;10.88;3.95;;;;;;;47.27;9.16;100421.16;5054965;28;20059;-65
2022/08/23 09:45:36;;;;;;;9.48;3.70;;;;;;;47.32;9.49;100418.78;5071399;28;20048;-65
2022/08/23 09:48:05;;;;;;;12.38;3.63;;;;;;;47.62;9.29;100402.63;5071539;28;20044;-65
2022/08/23 09:50:42;;;;;;;5.43;3.63;;;;;;;47.05;9.51;100389.09;5071815;28;20193;-65
2022/08/23 09:53:11;;;;;;;14.05;3.92;;;;;;;47.68;9.71;100397.47;5071340;28;20036;-65
2022/08/23 09:55:52;;;;;;;8.57;3.88;;;;;;;49.62;8.23;100403.06;5037887;28;20083;-65
2022/08/23 09:58:24;;;;;;;10.02;3.40;;;;;;;50.54;7.64;100416.00;5054066;28;20036;-65
2022/08/23 10:01:05;;;;;;;12.10;3.80;;;;;;;51.27;7.36;100405.59;5054191;28;20049;-65
2022/08/23 10:03:31;;;;;;;6.97;3.13;;;;;;;52.48;6.36;100409.97;5037864;28;20096;-65
2022/08/23 10:06:16;;;;;;;6.13;3.28;;;;;;;50.70;6.84;100409.09;5071833;28;20048;-65
2022/08/23 10:08:54;;;;;;;13.10;3.30;;;;;;;50.75;7.06;100408.69;5037698;28;20040;-65
2022/08/23 10:11:25;;;;;;;10.82;3.30;;;;;;;50.26;7.50;100389.75;5070516;28;20047;-65
2022/08/23 10:13:51;;;;;;;;;;;;;;;50.92;7.01;100405.78;5054472;28;20048;-65
2022/08/23 10:17:01;;;;;;;13.02;3.65;;;;;;;49.88;7.01;100385.75;5054343;28;19956;-65
2022/08/23 10:19:39;;;;;;;8.18;3.20;;;;;;;50.71;7.15;100391.72;5064957;28;20052;-65
2022/08/23 10:22:18;;;;;;;8.90;3.50;;;;;;;49.70;7.50;100384.91;5087174;28;20529;-66
2022/08/23 10:25:28;;;;;;;6.13;3.10;;;;;;;51.18;6.53;100387.50;5069603;28;20044;-67
2022/08/23 10:31:26;;;;;;;7.30;3.63;;;;;;;49.45;7.28;100395.38;5070270;28;20040;-66
2022/08/23 10:34:05;;;;;;;7.50;3.47;;;;;;;49.09;7.81;100396.44;5053456;28;20075;-66
2022/08/23 10:36:43;;;;;;;;;;;;;;;47.81;7.98;100395.16;5037167;28;20156;-66
2022/08/23 10:39:23;;;;;;;10.10;3.47;;;;;;;48.66;7.62;100377.69;5053528;28;19948;-66
2022/08/23 10:41:53;;;;;;;13.65;3.67;;;;;;;46.67;8.66;100400.63;5053578;28;20499;-66
2022/08/23 10:44:24;;;;;;;9.75;3.17;;;;;;;47.67;8.03;100393.81;5069925;28;20051;-65
2022/08/23 10:47:04;;;;;;;11.30;3.25;;;;;;;49.02;7.45;100383.13;5037223;28;20391;-66
2022/08/23 10:49:33;;;;;;;5.82;3.08;;;;;;;48.95;6.97;100402.00;5070347;28;20080;-66
2022/08/23 10:52:00;;;;;;;16.83;3.47;;;;;;;48.83;7.42;100385.44;5020217;28;20044;-66
2022/08/23 10:54:44;;;;;;;12.45;3.13;;;;;;;49.01;6.76;100391.97;5053087;28;20048;-66
2022/08/23 10:57:16;;;;;;;13.35;3.20;;;;;;;48.41;7.32;100386.00;5069604;28;20132;-66
2022/08/23 10:59:44;;;;;;;7.72;3.08;;;;;;;48.23;7.47;100381.41;5069533;28;20048;-66
2022/08/23 11:02:35;;;;;;;12.57;3.28;;;;;;;49.21;6.90;100372.69;5052786;28;20441;-68
2022/08/23 11:05:27;;;;;;;9.80;2.88;;;;;;;48.09;7.42;100392.59;5086223;28;20067;-67
2022/08/23 11:07:58;;;;;;;11.77;3.20;;;;;;;49.46;6.94;100405.44;5070002;28;20114;-65
2022/08/23 11:10:30;;;;;;;11.57;3.25;;;;;;;50.40;6.64;100396.22;5069667;28;20165;-66
2022/08/23 11:13:06;;;;;;;16.50;3.35;;;;;;;49.45;7.05;100386.09;5052769;28;20127;-65
2022/08/23 11:15:40;;;;;;;7.70;3.00;;;;;;;49.29;6.85;100394.09;5086478;28;20044;-65
2022/08/23 11:18:07;;;;;;;10.77;2.83;;;;;;;46.92;8.41;100370.84;5069400;28;20445;-66
2022/08/23 11:20:49;;;;;;;8.13;3.20;;;;;;;46.39;8.44;100382.53;5086333;28;20123;-65
2022/08/23 11:23:48;;;;;;;12.48;2.90;;;;;;;47.27;8.10;100393.78;5069218;28;20048;-65
2022/08/23 11:26:35;;;;;;;9.90;2.78;;;;;;;45.97;8.98;100391.91;5042846;28;20052;-66
2022/08/23 11:29:04;;;;;;;5.43;3.28;;;;;;;44.98;9.78;100384.75;5086160;28;20052;-65
2022/08/23 11:31:41;;;;;;;8.68;3.40;;;;;;;44.68;10.22;100378.91;5069191;28;20266;-65
2022/08/23 11:34:24;;;;;;;11.60;3.60;;;;;;;44.24;10.47;100383.81;5069547;28;20044;-65
2022/08/23 11:37:19;;;;;;;6.88;3.35;;;;;;;43.62;11.02;100372.66;5069166;28;20113;-66
2022/08/23 11:39:58;;;;;;;9.80;3.63;;;;;;;43.44;11.43;100374.16;5085873;28;20042;-65
2022/08/23 11:42:36;;;;;;;8.50;3.40;;;;;;;43.40;11.28;100373.22;5085996;28;20044;-66
2022/08/23 11:45:22;;;;;;;10.63;3.72;;;;;;;43.03;11.89;100369.78;5086005;28;20047;-66
2022/08/23 11:48:05;;;;;;;16.65;4.05;;;;;;;42.69;12.17;100363.94;5085954;28;20048;-66
2022/08/23 11:51:12;;;;;;;14.48;3.92;;;;;;;42.64;12.16;100367.78;5069204;28;20131;-66